Fitzgerald, Georgia
Current Conditions -  °F | °C
As of 2:35 AM on Sunday 23 Nov 2014 (Local Time) from KFZG Reporting Station
Heavy Rain Heavy Rain  
Wind Chill: 60°   Ceiling: 500
Heat Index: 60°   Visibility: 3mi
Dew Point: 57°   Wind: 8mph
Humidity: 91%   Direction: 100°E
Pressure: 30.11"   Gusts: NA
Location:  31.72°N, 83.25°W
Report Text: KFZG 230735Z AUTO 10007KT 3SM +RA BKN005 BKN012 OVC020 16/14 A3011 RMK AO2 T01550140
Loading
Personal Weather Stations






























Interactive Weather Map New forecast layout! Learn more

10-Day Weather Forecast

Advertisements
Track Severe Weather on mobile